createdAt,value
2018-02-18T00:00:41.796Z,1021.77
2018-02-18T00:01:51.046Z,1021.75
2018-02-18T00:02:59.769Z,1021.77
2018-02-18T00:04:08.808Z,1021.76
2018-02-18T00:05:18.076Z,1021.74
2018-02-18T00:06:27.305Z,1021.78
2018-02-18T00:07:36.549Z,1021.74
2018-02-18T00:08:45.796Z,1021.72
2018-02-18T00:09:55.049Z,1021.7
2018-02-18T00:11:04.303Z,1021.68
2018-02-18T00:12:13.271Z,1021.68
2018-02-18T00:13:22.531Z,1021.7
2018-02-18T00:14:31.278Z,1021.69
2018-02-18T00:15:40.055Z,1021.72
2018-02-18T00:16:49.025Z,1021.76
2018-02-18T00:17:58.266Z,1021.76
2018-02-18T00:19:07.504Z,1021.77
2018-02-18T00:20:17.078Z,1021.78
2018-02-18T00:21:26.107Z,1021.83
2018-02-18T00:22:35.398Z,1021.76
2018-02-18T00:23:44.652Z,1021.8
2018-02-18T00:24:54.391Z,1021.8
2018-02-18T00:26:03.643Z,1021.82
2018-02-18T00:27:12.780Z,1021.78
2018-02-18T00:28:21.814Z,1021.81
2018-02-18T00:29:31.352Z,1021.78
2018-02-18T00:30:40.083Z,1021.84
2018-02-18T00:31:49.305Z,1021.81
2018-02-18T00:32:58.289Z,1021.83
2018-02-18T00:34:07.624Z,1021.79
2018-02-18T00:35:16.610Z,1021.83
2018-02-18T00:36:25.607Z,1021.84
2018-02-18T00:37:34.558Z,1021.84
2018-02-18T00:38:43.292Z,1021.86
2018-02-18T00:39:52.514Z,1021.84
2018-02-18T00:41:02.090Z,1021.91
2018-02-18T00:42:11.601Z,1021.93
2018-02-18T00:43:20.360Z,1021.94
2018-02-18T00:44:29.628Z,1021.96
2018-02-18T00:45:39.390Z,1021.95
2018-02-18T00:46:48.441Z,1021.97
2018-02-18T00:47:57.147Z,1021.95
2018-02-18T00:49:06.027Z,1021.92
2018-02-18T00:50:15.308Z,1021.96
2018-02-18T00:51:24.014Z,1021.93
2018-02-18T00:52:33.269Z,1021.97
2018-02-18T00:53:42.779Z,1022
2018-02-18T00:54:52.011Z,1022.01
2018-02-18T00:56:00.710Z,1022.03
2018-02-18T00:57:09.762Z,1022.03
2018-02-18T00:58:18.973Z,1022.05
2018-02-18T00:59:28.272Z,1022.02
2018-02-18T01:00:37.240Z,1022.03
2018-02-18T01:01:46.486Z,1022.05
2018-02-18T01:02:56.222Z,1022.04
2018-02-18T01:04:05.626Z,1022.04
2018-02-18T01:05:14.870Z,1022
2018-02-18T01:06:23.843Z,1022.02
2018-02-18T01:07:33.092Z,1022.01
2018-02-18T01:08:42.848Z,1022.01
2018-02-18T01:09:52.084Z,1021.99
2018-02-18T01:11:01.036Z,1022.02
2018-02-18T01:12:10.246Z,1022
2018-02-18T01:13:19.736Z,1022.02
2018-02-18T01:14:29.258Z,1022.01
2018-02-18T01:15:38.234Z,1022
2018-02-18T01:16:47.277Z,1022.05
2018-02-18T01:17:56.253Z,1022
2018-02-18T01:19:05.749Z,1022.03
2018-02-18T01:20:14.753Z,1022.04
2018-02-18T01:21:23.972Z,1022.09
2018-02-18T01:22:33.039Z,1022.1
2018-02-18T01:23:42.595Z,1022.13
2018-02-18T01:24:51.578Z,1022.14
2018-02-18T01:26:00.536Z,1022.15
2018-02-18T01:27:09.550Z,1022.2
2018-02-18T01:28:18.541Z,1022.23
2018-02-18T01:29:28.050Z,1022.16
2018-02-18T01:30:37.013Z,1022.2
2018-02-18T01:31:46.245Z,1022.18
2018-02-18T01:32:55.197Z,1022.17
2018-02-18T01:34:04.137Z,1022.17
2018-02-18T01:35:13.081Z,1022.16
2018-02-18T01:36:22.040Z,1022.21
2018-02-18T01:37:30.724Z,1022.25
2018-02-18T01:38:39.949Z,1022.17
2018-02-18T01:39:48.657Z,1022.17
2018-02-18T01:40:58.133Z,1022.15
2018-02-18T01:42:07.367Z,1022.13
2018-02-18T01:43:16.575Z,1022.13
2018-02-18T01:44:25.835Z,1022.16
2018-02-18T01:45:35.138Z,1022.12
2018-02-18T01:46:44.332Z,1022.12
2018-02-18T01:47:53.269Z,1022.15
2018-02-18T01:49:02.237Z,1022.2
2018-02-18T01:50:11.263Z,1022.15
2018-02-18T01:51:20.539Z,1022.19
2018-02-18T01:52:29.486Z,1022.2
2018-02-18T01:53:38.195Z,1022.21
2018-02-18T01:54:47.942Z,1022.24
2018-02-18T01:55:56.874Z,1022.24
2018-02-18T01:57:06.366Z,1022.21
2018-02-18T01:58:15.342Z,1022.18
2018-02-18T01:59:24.283Z,1022.23
2018-02-18T02:00:32.985Z,1022.17
2018-02-18T02:01:42.739Z,1022.16
2018-02-18T02:02:52.377Z,1022.18
2018-02-18T02:04:02.955Z,1022.21
2018-02-18T02:05:12.157Z,1022.21
2018-02-18T02:06:21.369Z,1022.25
2018-02-18T02:07:30.875Z,1022.22
2018-02-18T02:08:39.838Z,1022.23
2018-02-18T02:09:49.057Z,1022.21
2018-02-18T02:10:58.302Z,1022.23
2018-02-18T02:12:07.054Z,1022.25
2018-02-18T02:13:16.007Z,1022.25
2018-02-18T02:14:24.989Z,1022.2
2018-02-18T02:15:34.205Z,1022.22
2018-02-18T02:16:43.199Z,1022.22
2018-02-18T02:17:51.939Z,1022.23
2018-02-18T02:19:01.173Z,1022.19
2018-02-18T02:20:10.922Z,1022.15
2018-02-18T02:21:20.173Z,1022.17
2018-02-18T02:22:29.444Z,1022.17
2018-02-18T02:23:38.449Z,1022.17
2018-02-18T02:24:47.435Z,1022.16
2018-02-18T02:25:56.670Z,1022.22
2018-02-18T02:27:05.925Z,1022.2
2018-02-18T02:28:14.624Z,1022.22
2018-02-18T02:29:24.108Z,1022.24
2018-02-18T02:30:33.326Z,1022.24
2018-02-18T02:31:42.561Z,1022.24
2018-02-18T02:32:52.346Z,1022.22
2018-02-18T02:34:01.564Z,1022.24
2018-02-18T02:35:10.832Z,1022.22
2018-02-18T02:36:19.810Z,1022.21
2018-02-18T02:37:29.032Z,1022.17
2018-02-18T02:38:38.054Z,1022.14
2018-02-18T02:39:47.274Z,1022.13
2018-02-18T02:40:57.044Z,1022.1
2018-02-18T02:42:06.044Z,1022.09
2018-02-18T02:43:15.806Z,1022.08
2018-02-18T02:44:24.782Z,1022.11
2018-02-18T02:45:33.528Z,1022.09
2018-02-18T02:46:43.058Z,1022.14
2018-02-18T02:47:52.570Z,1022.15
2018-02-18T02:49:02.081Z,1022.19
2018-02-18T02:50:11.589Z,1022.23
2018-02-18T02:51:21.075Z,1022.22
2018-02-18T02:52:30.014Z,1022.25
2018-02-18T02:53:38.968Z,1022.25
2018-02-18T02:54:48.504Z,1022.25
2018-02-18T02:55:57.446Z,1022.27
2018-02-18T02:57:07.198Z,1022.27
2018-02-18T02:58:17.232Z,1022.22
2018-02-18T02:59:26.774Z,1022.23
2018-02-18T03:00:36.245Z,1022.21
2018-02-18T03:01:45.752Z,1022.21
2018-02-18T03:02:54.443Z,1022.18
2018-02-18T03:04:04.203Z,1022.18
2018-02-18T03:05:13.174Z,1022.22
2018-02-18T03:06:22.417Z,1022.19
2018-02-18T03:07:31.156Z,1022.19
2018-02-18T03:08:39.848Z,1022.19
2018-02-18T03:09:48.808Z,1022.17
2018-02-18T03:10:58.294Z,1022.14
2018-02-18T03:12:07.548Z,1022.15
2018-02-18T03:13:16.529Z,1022.14
2018-02-18T03:14:25.217Z,1022.13
2018-02-18T03:15:34.701Z,1022.15
2018-02-18T03:16:43.436Z,1022.13
2018-02-18T03:17:52.655Z,1022.11
2018-02-18T03:19:01.342Z,1022.1
2018-02-18T03:20:10.578Z,1022.09
2018-02-18T03:21:19.804Z,1022.05
2018-02-18T03:22:28.515Z,1022.05
2018-02-18T03:23:37.735Z,1022.03
2018-02-18T03:24:46.714Z,1021.98
2018-02-18T03:25:55.944Z,1021.98
2018-02-18T03:27:04.928Z,1021.97
2018-02-18T03:28:14.460Z,1021.95
2018-02-18T03:29:23.408Z,1021.97
2018-02-18T03:30:32.645Z,1021.97
2018-02-18T03:31:41.948Z,1021.96
2018-02-18T03:32:50.661Z,1022.01
2018-02-18T03:33:59.892Z,1021.97
2018-02-18T03:35:08.867Z,1021.95
2018-02-18T03:36:18.134Z,1021.96
2018-02-18T03:37:27.118Z,1021.93
2018-02-18T03:38:36.346Z,1021.98
2018-02-18T03:39:45.035Z,1022
2018-02-18T03:40:53.988Z,1022.02
2018-02-18T03:42:02.694Z,1021.97
2018-02-18T03:43:11.377Z,1022
2018-02-18T03:44:20.861Z,1021.99
2018-02-18T03:45:29.839Z,1022
2018-02-18T03:46:39.580Z,1022.03
2018-02-18T03:47:48.301Z,1022
2018-02-18T03:48:57.239Z,1021.99
2018-02-18T03:50:06.201Z,1021.95
2018-02-18T03:51:15.940Z,1022
2018-02-18T03:52:25.425Z,1021.97
2018-02-18T03:53:34.644Z,1021.98
2018-02-18T03:54:43.591Z,1021.99
2018-02-18T03:55:52.270Z,1022.01
2018-02-18T03:57:00.981Z,1022.02
2018-02-18T03:58:09.954Z,1021.97
2018-02-18T03:59:18.896Z,1021.95
2018-02-18T04:00:27.842Z,1021.95
2018-02-18T04:01:37.104Z,1021.92
2018-02-18T04:02:46.571Z,1021.91
2018-02-18T04:03:55.516Z,1021.92
2018-02-18T04:05:04.477Z,1021.93
2018-02-18T04:06:13.708Z,1021.93
2018-02-18T04:07:22.397Z,1021.91
2018-02-18T04:08:31.615Z,1021.93
2018-02-18T04:09:40.840Z,1021.93
2018-02-18T04:10:49.779Z,1021.95
2018-02-18T04:11:59.535Z,1021.93
2018-02-18T04:13:09.019Z,1021.92
2018-02-18T04:14:17.991Z,1021.94
2018-02-18T04:15:27.483Z,1021.93
2018-02-18T04:16:36.420Z,1021.94
2018-02-18T04:17:46.130Z,1021.99
2018-02-18T04:18:55.104Z,1021.98
2018-02-18T04:20:04.604Z,1022
2018-02-18T04:21:13.849Z,1022.03
2018-02-18T04:22:22.547Z,1022.05
2018-02-18T04:23:31.759Z,1022.05
2018-02-18T04:24:40.448Z,1022.09
2018-02-18T04:25:49.153Z,1022.08
2018-02-18T04:26:58.097Z,1022.12
2018-02-18T04:28:07.599Z,1022.09
2018-02-18T04:29:17.129Z,1022.1
2018-02-18T04:30:26.132Z,1022.09
2018-02-18T04:31:34.813Z,1022.1
2018-02-18T04:32:43.508Z,1022.09
2018-02-18T04:33:52.457Z,1022.11
2018-02-18T04:35:01.976Z,1022.11
2018-02-18T04:36:11.202Z,1022.13
2018-02-18T04:37:20.432Z,1022.15
2018-02-18T04:38:29.379Z,1022.15
2018-02-18T04:39:38.110Z,1022.19
2018-02-18T04:40:47.626Z,1022.22
2018-02-18T04:41:56.846Z,1022.21
2018-02-18T04:43:06.375Z,1022.21
2018-02-18T04:44:15.608Z,1022.21
2018-02-18T04:45:24.307Z,1022.18
2018-02-18T04:46:33.588Z,1022.17
2018-02-18T04:47:42.555Z,1022.19
2018-02-18T04:48:51.797Z,1022.16
2018-02-18T04:50:01.017Z,1022.2
2018-02-18T04:51:10.244Z,1022.17
2018-02-18T04:52:18.954Z,1022.15
2018-02-18T04:53:28.034Z,1022.19
2018-02-18T04:54:37.299Z,1022.16
2018-02-18T04:55:46.254Z,1022.18
2018-02-18T04:56:55.465Z,1022.21
2018-02-18T04:58:04.429Z,1022.18
2018-02-18T04:59:13.916Z,1022.19
2018-02-18T05:00:22.893Z,1022.19
2018-02-18T05:01:32.661Z,1022.19
2018-02-18T05:02:41.888Z,1022.13
2018-02-18T05:03:51.404Z,1022.18
2018-02-18T05:05:00.358Z,1022.17
2018-02-18T05:06:09.563Z,1022.15
2018-02-18T05:07:18.803Z,1022.2
2018-02-18T05:08:28.012Z,1022.18
2018-02-18T05:09:37.513Z,1022.19
2018-02-18T05:10:46.495Z,1022.19
2018-02-18T05:11:55.442Z,1022.25
2018-02-18T05:13:04.400Z,1022.28
2018-02-18T05:14:13.646Z,1022.29
2018-02-18T05:15:22.657Z,1022.27
2018-02-18T05:16:31.880Z,1022.29
2018-02-18T05:17:41.105Z,1022.3
2018-02-18T05:18:50.055Z,1022.26
2018-02-18T05:19:59.000Z,1022.28
2018-02-18T05:21:08.018Z,1022.27
2018-02-18T05:22:17.022Z,1022.26
2018-02-18T05:23:25.934Z,1022.29
2018-02-18T05:24:34.902Z,1022.3
2018-02-18T05:25:44.134Z,1022.31
2018-02-18T05:26:52.824Z,1022.33
2018-02-18T05:28:01.563Z,1022.33
2018-02-18T05:29:10.785Z,1022.33
2018-02-18T05:30:20.256Z,1022.36
2018-02-18T05:31:29.488Z,1022.35
2018-02-18T05:32:38.722Z,1022.34
2018-02-18T05:33:47.712Z,1022.28
2018-02-18T05:34:56.915Z,1022.27
2018-02-18T05:36:05.917Z,1022.32
2018-02-18T05:37:15.450Z,1022.24
2018-02-18T05:38:24.253Z,1022.23
2018-02-18T05:39:33.453Z,1022.21
2018-02-18T05:40:42.919Z,1022.2
2018-02-18T05:41:51.927Z,1022.24
2018-02-18T05:43:01.441Z,1022.21
2018-02-18T05:44:10.208Z,1022.2
2018-02-18T05:45:19.484Z,1022.21
2018-02-18T05:46:28.954Z,1022.28
2018-02-18T05:47:37.924Z,1022.32
2018-02-18T05:48:46.888Z,1022.33
2018-02-18T05:49:56.101Z,1022.36
2018-02-18T05:51:04.781Z,1022.45
2018-02-18T05:52:13.984Z,1022.44
2018-02-18T05:53:22.946Z,1022.43
2018-02-18T05:54:31.929Z,1022.47
2018-02-18T05:55:40.631Z,1022.45
2018-02-18T05:56:49.872Z,1022.44
2018-02-18T05:57:58.819Z,1022.48
2018-02-18T05:59:08.035Z,1022.36
2018-02-18T06:00:17.006Z,1022.4
2018-02-18T06:01:26.468Z,1022.33
2018-02-18T06:02:35.485Z,1022.35
2018-02-18T06:03:44.448Z,1022.37
2018-02-18T06:04:53.384Z,1022.35
2018-02-18T06:06:02.876Z,1022.33
2018-02-18T06:07:12.146Z,1022.34
2018-02-18T06:08:21.382Z,1022.32
2018-02-18T06:09:30.365Z,1022.3
2018-02-18T06:10:39.620Z,1022.28
2018-02-18T06:11:49.081Z,1022.32
2018-02-18T06:12:58.090Z,1022.32
2018-02-18T06:14:07.043Z,1022.32
2018-02-18T06:15:16.003Z,1022.3
2018-02-18T06:16:26.002Z,1022.32
2018-02-18T06:17:35.501Z,1022.31
2018-02-18T06:18:44.742Z,1022.32
2018-02-18T06:19:54.471Z,1022.31
2018-02-18T06:21:03.694Z,1022.34
2018-02-18T06:22:13.173Z,1022.36
2018-02-18T06:23:22.652Z,1022.33
2018-02-18T06:24:31.895Z,1022.38
2018-02-18T06:25:40.645Z,1022.39
2018-02-18T06:26:49.579Z,1022.37
2018-02-18T06:27:58.551Z,1022.34
2018-02-18T06:29:08.033Z,1022.39
2018-02-18T06:30:16.731Z,1022.39
2018-02-18T06:31:25.961Z,1022.37
2018-02-18T06:32:34.939Z,1022.3
2018-02-18T06:33:44.461Z,1022.37
2018-02-18T06:34:53.159Z,1022.41
2018-02-18T06:36:02.437Z,1022.35
2018-02-18T06:37:12.243Z,1022.41
2018-02-18T06:38:21.266Z,1022.42
2018-02-18T06:39:31.016Z,1022.47
2018-02-18T06:40:39.977Z,1022.47
2018-02-18T06:41:48.937Z,1022.48
2018-02-18T06:42:58.136Z,1022.47
2018-02-18T06:44:07.396Z,1022.49
2018-02-18T06:45:16.085Z,1022.45
2018-02-18T06:46:25.558Z,1022.47
2018-02-18T06:47:34.543Z,1022.38
2018-02-18T06:48:44.093Z,1022.38
2018-02-18T06:49:52.781Z,1022.31
2018-02-18T06:51:01.716Z,1022.36
2018-02-18T06:52:10.403Z,1022.44
2018-02-18T06:53:19.133Z,1022.44
2018-02-18T06:54:27.819Z,1022.48
2018-02-18T06:55:36.503Z,1022.49
2018-02-18T06:56:45.765Z,1022.46
2018-02-18T06:57:54.978Z,1022.48
2018-02-18T06:59:03.931Z,1022.47
2018-02-18T07:00:13.151Z,1022.46
2018-02-18T07:01:22.117Z,1022.45
2018-02-18T07:02:31.057Z,1022.49
2018-02-18T07:03:40.551Z,1022.54
2018-02-18T07:04:49.258Z,1022.61
2018-02-18T07:05:58.755Z,1022.67
2018-02-18T07:07:07.956Z,1022.66
2018-02-18T07:08:17.195Z,1022.68
2018-02-18T07:09:25.875Z,1022.7
2018-02-18T07:10:34.591Z,1022.68
2018-02-18T07:11:43.573Z,1022.68
2018-02-18T07:12:52.307Z,1022.65
2018-02-18T07:14:00.979Z,1022.65
2018-02-18T07:15:09.919Z,1022.68
2018-02-18T07:16:19.135Z,1022.62
2018-02-18T07:17:28.080Z,1022.62
2018-02-18T07:18:37.375Z,1022.54
2018-02-18T07:19:46.888Z,1022.52
2018-02-18T07:20:55.851Z,1022.52
2018-02-18T07:22:05.377Z,1022.5
2018-02-18T07:23:14.373Z,1022.57
2018-02-18T07:24:23.314Z,1022.55
2018-02-18T07:25:32.540Z,1022.52
2018-02-18T07:26:41.254Z,1022.54
2018-02-18T07:27:50.511Z,1022.52
2018-02-18T07:29:00.019Z,1022.52
2018-02-18T07:30:09.243Z,1022.54
2018-02-18T07:31:18.447Z,1022.53
2018-02-18T07:32:27.152Z,1022.56
2018-02-18T07:33:35.852Z,1022.55
2018-02-18T07:34:45.104Z,1022.63
2018-02-18T07:35:54.340Z,1022.61
2018-02-18T07:37:03.276Z,1022.59
2018-02-18T07:38:12.581Z,1022.58
2018-02-18T07:39:21.526Z,1022.56
2018-02-18T07:40:30.545Z,1022.56
2018-02-18T07:41:39.520Z,1022.53
2018-02-18T07:42:48.535Z,1022.5
2018-02-18T07:43:57.541Z,1022.48
2018-02-18T07:45:07.029Z,1022.42
2018-02-18T07:46:16.299Z,1022.42
2018-02-18T07:47:26.042Z,1022.4
2018-02-18T07:48:35.290Z,1022.4
2018-02-18T07:49:44.254Z,1022.4
2018-02-18T07:50:53.200Z,1022.41
2018-02-18T07:52:02.436Z,1022.39
2018-02-18T07:53:11.125Z,1022.43
2018-02-18T07:54:20.326Z,1022.41
2018-02-18T07:55:29.574Z,1022.4
2018-02-18T07:56:38.771Z,1022.39
2018-02-18T07:57:47.478Z,1022.45
2018-02-18T07:58:56.422Z,1022.45
2018-02-18T08:00:05.903Z,1022.46
2018-02-18T08:01:15.168Z,1022.42
2018-02-18T08:02:24.162Z,1022.46
2018-02-18T08:03:32.833Z,1022.47
2018-02-18T08:04:42.083Z,1022.44
2018-02-18T08:05:51.545Z,1022.42
2018-02-18T08:07:00.232Z,1022.44
2018-02-18T08:08:08.953Z,1022.42
2018-02-18T08:09:17.629Z,1022.39
2018-02-18T08:10:26.338Z,1022.39
2018-02-18T08:11:35.561Z,1022.39
2018-02-18T08:12:45.075Z,1022.35
2018-02-18T08:13:53.768Z,1022.34
2018-02-18T08:15:02.988Z,1022.35
2018-02-18T08:16:12.250Z,1022.36
2018-02-18T08:17:20.964Z,1022.29
2018-02-18T08:18:30.190Z,1022.32
2018-02-18T08:19:39.188Z,1022.3
2018-02-18T08:20:48.037Z,1022.35
2018-02-18T08:21:56.763Z,1022.33
2018-02-18T08:23:06.394Z,1022.35
2018-02-18T08:24:16.876Z,1022.35
2018-02-18T08:25:26.391Z,1022.35
2018-02-18T08:26:36.218Z,1022.35
2018-02-18T08:27:45.251Z,1022.37
2018-02-18T08:28:54.753Z,1022.36
2018-02-18T08:30:04.014Z,1022.36
2018-02-18T08:31:14.349Z,1022.37
2018-02-18T08:32:23.322Z,1022.38
2018-02-18T08:33:32.052Z,1022.34
2018-02-18T08:34:41.538Z,1022.34
2018-02-18T08:35:50.457Z,1022.3
2018-02-18T08:36:59.728Z,1022.31
2018-02-18T08:38:08.639Z,1022.32
2018-02-18T08:39:17.889Z,1022.35
2018-02-18T08:40:27.241Z,1022.38
2018-02-18T08:41:36.576Z,1022.42
2018-02-18T08:42:45.434Z,1022.4
2018-02-18T08:43:54.919Z,1022.41
2018-02-18T08:45:03.919Z,1022.41
2018-02-18T08:46:13.425Z,1022.39
2018-02-18T08:47:22.656Z,1022.41
2018-02-18T08:48:31.384Z,1022.38
2018-02-18T08:49:40.330Z,1022.33
2018-02-18T08:50:49.810Z,1022.37
2018-02-18T08:51:58.784Z,1022.36
2018-02-18T08:53:07.526Z,1022.37
2018-02-18T08:54:16.482Z,1022.37
2018-02-18T08:55:25.177Z,1022.32
2018-02-18T08:56:34.431Z,1022.32
2018-02-18T08:57:43.657Z,1022.34
2018-02-18T08:58:52.643Z,1022.34
2018-02-18T09:00:01.375Z,1022.34
2018-02-18T09:01:10.612Z,1022.37
2018-02-18T09:02:20.414Z,1022.38
2018-02-18T09:03:29.935Z,1022.42
2018-02-18T09:04:38.891Z,1022.42
2018-02-18T09:05:47.858Z,1022.47
2018-02-18T09:06:56.841Z,1022.49
2018-02-18T09:08:05.821Z,1022.46
2018-02-18T09:09:15.837Z,1022.5
2018-02-18T09:10:24.787Z,1022.54
2018-02-18T09:11:33.766Z,1022.52
2018-02-18T09:12:42.829Z,1022.54
2018-02-18T09:13:51.782Z,1022.54
2018-02-18T09:15:01.004Z,1022.58
2018-02-18T09:16:10.749Z,1022.57
2018-02-18T09:17:19.797Z,1022.62
2018-02-18T09:18:28.802Z,1022.64
2018-02-18T09:19:37.526Z,1022.57
2018-02-18T09:20:46.490Z,1022.61
2018-02-18T09:21:56.236Z,1022.62
2018-02-18T09:23:05.186Z,1022.61
2018-02-18T09:24:14.432Z,1022.6
2018-02-18T09:25:24.480Z,1022.56
2018-02-18T09:26:33.184Z,1022.58
2018-02-18T09:27:42.446Z,1022.58
2018-02-18T09:28:51.426Z,1022.57
2018-02-18T09:30:00.966Z,1022.56
2018-02-18T09:31:10.444Z,1022.56
2018-02-18T09:32:19.992Z,1022.52
2018-02-18T09:33:28.953Z,1022.52
2018-02-18T09:34:38.231Z,1022.54
2018-02-18T09:35:47.804Z,1022.51
2018-02-18T09:36:57.366Z,1022.51
2018-02-18T09:38:06.607Z,1022.53
2018-02-18T09:39:16.341Z,1022.59
2018-02-18T09:40:25.818Z,1022.6
2018-02-18T09:41:35.040Z,1022.63
2018-02-18T09:42:44.275Z,1022.66
2018-02-18T09:43:53.488Z,1022.63
2018-02-18T09:45:02.966Z,1022.67
2018-02-18T09:46:11.920Z,1022.61
2018-02-18T09:47:21.143Z,1022.59
2018-02-18T09:48:30.381Z,1022.62
2018-02-18T09:49:39.871Z,1022.58
2018-02-18T09:50:48.812Z,1022.55
2018-02-18T09:51:57.817Z,1022.59
2018-02-18T09:53:07.321Z,1022.58
2018-02-18T09:54:16.818Z,1022.56
2018-02-18T09:55:26.027Z,1022.58
2018-02-18T09:56:35.780Z,1022.57
2018-02-18T09:57:44.803Z,1022.59
2018-02-18T09:58:54.319Z,1022.6
2018-02-18T10:00:03.883Z,1022.55
2018-02-18T10:01:12.838Z,1022.58
2018-02-18T10:02:21.796Z,1022.58
2018-02-18T10:03:31.022Z,1022.58
2018-02-18T10:04:40.264Z,1022.59
2018-02-18T10:05:48.945Z,1022.58
2018-02-18T10:06:58.682Z,1022.59
2018-02-18T10:08:07.401Z,1022.54
2018-02-18T10:09:16.617Z,1022.57
2018-02-18T10:10:25.330Z,1022.56
2018-02-18T10:11:34.041Z,1022.58
2018-02-18T10:12:43.262Z,1022.56
2018-02-18T10:13:52.579Z,1022.58
2018-02-18T10:15:01.856Z,1022.63
2018-02-18T10:16:10.859Z,1022.59
2018-02-18T10:17:19.881Z,1022.56
2018-02-18T10:18:28.851Z,1022.6
2018-02-18T10:19:38.114Z,1022.61
2018-02-18T10:20:47.075Z,1022.59
2018-02-18T10:21:56.339Z,1022.6
2018-02-18T10:23:05.672Z,1022.63
2018-02-18T10:24:14.945Z,1022.71
2018-02-18T10:25:24.388Z,1022.66
2018-02-18T10:26:33.631Z,1022.73
2018-02-18T10:27:42.626Z,1022.74
2018-02-18T10:28:51.718Z,1022.75
2018-02-18T10:30:03.044Z,1022.72
2018-02-18T10:31:12.260Z,1022.66
2018-02-18T10:32:21.534Z,1022.69
2018-02-18T10:33:30.760Z,1022.73
2018-02-18T10:34:40.792Z,1022.71
2018-02-18T10:35:50.149Z,1022.71
2018-02-18T10:36:59.163Z,1022.72
2018-02-18T10:38:08.414Z,1022.78
2018-02-18T10:39:17.516Z,1022.73
2018-02-18T10:40:26.486Z,1022.71
2018-02-18T10:41:35.804Z,1022.69
2018-02-18T10:42:45.048Z,1022.73
2018-02-18T10:43:53.738Z,1022.67
2018-02-18T10:45:03.219Z,1022.66
2018-02-18T10:46:13.878Z,1022.65
2018-02-18T10:47:23.122Z,1022.65
2018-02-18T10:48:32.354Z,1022.54
2018-02-18T10:49:41.341Z,1022.65
2018-02-18T10:50:51.172Z,1022.65
2018-02-18T10:52:00.411Z,1022.63
2018-02-18T10:53:09.380Z,1022.61
2018-02-18T10:54:18.185Z,1022.61
2018-02-18T10:55:27.170Z,1022.61
2018-02-18T10:56:36.400Z,1022.57
2018-02-18T10:57:45.668Z,1022.61
2018-02-18T10:58:55.934Z,1022.58
2018-02-18T11:00:05.444Z,1022.59
2018-02-18T11:01:14.176Z,1022.54
2018-02-18T11:02:23.265Z,1022.49
2018-02-18T11:03:32.221Z,1022.55
2018-02-18T11:04:40.972Z,1022.57
2018-02-18T11:05:50.881Z,1022.56
2018-02-18T11:07:01.318Z,1022.54
2018-02-18T11:08:10.332Z,1022.54
2018-02-18T11:09:19.856Z,1022.51
2018-02-18T11:10:29.130Z,1022.56
2018-02-18T11:11:38.395Z,1022.51
2018-02-18T11:12:47.923Z,1022.49
2018-02-18T11:13:57.424Z,1022.47
2018-02-18T11:15:06.389Z,1022.48
2018-02-18T11:16:15.635Z,1022.48
2018-02-18T11:17:24.582Z,1022.44
2018-02-18T11:18:33.810Z,1022.41
2018-02-18T11:19:43.120Z,1022.43
2018-02-18T11:20:52.347Z,1022.42
2018-02-18T11:22:01.898Z,1022.38
2018-02-18T11:23:10.877Z,1022.39
2018-02-18T11:24:19.895Z,1022.39
2018-02-18T11:25:28.915Z,1022.39
2018-02-18T11:26:37.624Z,1022.39
2018-02-18T11:27:46.847Z,1022.37
2018-02-18T11:28:56.108Z,1022.36
2018-02-18T11:30:05.088Z,1022.35
2018-02-18T11:31:14.338Z,1022.34
2018-02-18T11:32:23.290Z,1022.34
2018-02-18T11:33:32.574Z,1022.34
2018-02-18T11:34:41.808Z,1022.39
2018-02-18T11:35:51.022Z,1022.34
2018-02-18T11:37:00.915Z,1022.31
2018-02-18T11:38:09.929Z,1022.37
2018-02-18T11:39:18.925Z,1022.38
2018-02-18T11:40:27.930Z,1022.34
2018-02-18T11:41:36.911Z,1022.36
2018-02-18T11:42:45.620Z,1022.36
2018-02-18T11:43:54.855Z,1022.33
2018-02-18T11:45:04.577Z,1022.32
2018-02-18T11:46:14.116Z,1022.31
2018-02-18T11:47:23.320Z,1022.29
2018-02-18T11:48:32.578Z,1022.21
2018-02-18T11:49:41.548Z,1022.21
2018-02-18T11:50:50.815Z,1022.22
2018-02-18T11:51:59.786Z,1022.22
2018-02-18T11:53:08.755Z,1022.2
2018-02-18T11:54:18.042Z,1022.18
2018-02-18T11:55:27.317Z,1022.18
2018-02-18T11:56:36.006Z,1022.15
2018-02-18T11:57:44.979Z,1022.19
2018-02-18T11:58:54.508Z,1022.15
2018-02-18T12:00:04.053Z,1022.17
2018-02-18T12:01:13.538Z,1022.13
2018-02-18T12:02:22.801Z,1022.13
2018-02-18T12:03:31.799Z,1022.11
2018-02-18T12:04:41.071Z,1022.13
2018-02-18T12:05:50.293Z,1022.08
2018-02-18T12:06:59.720Z,1022.1
2018-02-18T12:08:08.996Z,1022.03
2018-02-18T12:09:17.993Z,1022
2018-02-18T12:10:27.001Z,1021.98
2018-02-18T12:11:35.961Z,1021.96
2018-02-18T12:12:44.934Z,1021.93
2018-02-18T12:13:54.166Z,1021.95
2018-02-18T12:15:03.140Z,1021.9
2018-02-18T12:16:12.168Z,1021.92
2018-02-18T12:17:20.918Z,1021.92
2018-02-18T12:18:30.703Z,1021.87
2018-02-18T12:19:40.243Z,1021.87
2018-02-18T12:20:49.487Z,1021.85
2018-02-18T12:21:58.697Z,1021.81
2018-02-18T12:23:08.224Z,1021.8
2018-02-18T12:24:17.453Z,1021.8
2018-02-18T12:25:26.668Z,1021.78
2018-02-18T12:26:35.628Z,1021.78
2018-02-18T12:27:44.591Z,1021.76
2018-02-18T12:28:53.549Z,1021.73
2018-02-18T12:30:02.550Z,1021.74
2018-02-18T12:31:11.509Z,1021.75
2018-02-18T12:32:20.732Z,1021.78
2018-02-18T12:33:29.993Z,1021.81
2018-02-18T12:34:39.474Z,1021.78
2018-02-18T12:35:48.419Z,1021.79
2018-02-18T12:36:57.412Z,1021.8
2018-02-18T12:38:06.630Z,1021.75
2018-02-18T12:39:15.644Z,1021.74
2018-02-18T12:40:24.632Z,1021.77
2018-02-18T12:41:33.847Z,1021.78
2018-02-18T12:42:42.835Z,1021.78
2018-02-18T12:43:51.573Z,1021.74
2018-02-18T12:45:00.782Z,1021.79
2018-02-18T12:46:09.802Z,1021.73
2018-02-18T12:47:18.802Z,1021.72
2018-02-18T12:48:28.803Z,1021.7
2018-02-18T12:49:37.518Z,1021.68
2018-02-18T12:50:47.044Z,1021.65
2018-02-18T12:51:56.005Z,1021.58
2018-02-18T12:53:04.959Z,1021.6
2018-02-18T12:54:14.720Z,1021.56
2018-02-18T12:55:23.977Z,1021.56
2018-02-18T12:56:32.676Z,1021.58
2018-02-18T12:57:41.676Z,1021.57
2018-02-18T12:58:50.681Z,1021.53
2018-02-18T12:59:59.645Z,1021.52
2018-02-18T13:01:09.149Z,1021.54
2018-02-18T13:02:18.101Z,1021.55
2018-02-18T13:03:27.331Z,1021.49
2018-02-18T13:04:36.571Z,1021.48
2018-02-18T13:05:46.052Z,1021.5
2018-02-18T13:06:55.535Z,1021.44
2018-02-18T13:08:04.832Z,1021.42
2018-02-18T13:09:14.076Z,1021.41
2018-02-18T13:10:22.788Z,1021.39
2018-02-18T13:11:31.990Z,1021.4
2018-02-18T13:12:40.698Z,1021.36
2018-02-18T13:13:49.643Z,1021.33
2018-02-18T13:14:58.855Z,1021.28
2018-02-18T13:16:07.547Z,1021.31
2018-02-18T13:17:16.229Z,1021.29
2018-02-18T13:18:25.432Z,1021.33
2018-02-18T13:19:34.384Z,1021.29
2018-02-18T13:20:43.331Z,1021.3
2018-02-18T13:21:52.556Z,1021.3
2018-02-18T13:23:01.848Z,1021.3
2018-02-18T13:24:10.552Z,1021.26
2018-02-18T13:25:19.789Z,1021.25
2018-02-18T13:26:28.491Z,1021.23
2018-02-18T13:27:37.717Z,1021.24
2018-02-18T13:28:46.938Z,1021.18
2018-02-18T13:29:55.923Z,1021.21
2018-02-18T13:31:04.873Z,1021.23
2018-02-18T13:32:14.129Z,1021.24
2018-02-18T13:33:23.768Z,1021.24
2018-02-18T13:34:32.737Z,1021.25
2018-02-18T13:35:41.981Z,1021.23
2018-02-18T13:36:50.977Z,1021.24
2018-02-18T13:38:00.232Z,1021.25
2018-02-18T13:39:09.452Z,1021.28
2018-02-18T13:40:18.414Z,1021.24
2018-02-18T13:41:27.400Z,1021.19
2018-02-18T13:42:36.362Z,1021.17
2018-02-18T13:43:45.069Z,1021.18
2018-02-18T13:44:54.288Z,1021.13
2018-02-18T13:46:03.535Z,1021.13
2018-02-18T13:47:12.257Z,1021.03
2018-02-18T13:48:21.213Z,1021.05
2018-02-18T13:49:30.178Z,1021
2018-02-18T13:50:39.405Z,1021.01
2018-02-18T13:51:48.909Z,1021.01
2018-02-18T13:52:57.886Z,1020.99
2018-02-18T13:54:07.101Z,1021.03
2018-02-18T13:55:16.615Z,1021.04
2018-02-18T13:56:25.826Z,1021.06
2018-02-18T13:57:35.081Z,1021.06
2018-02-18T13:58:44.074Z,1021.05
2018-02-18T13:59:53.355Z,1021.04